Airport View

Enter AWOS ICAO identifier for current METAR.

ex. KFNL

KHOB 030045Z AUTO 15012KT 10SM CLR 31/10 A3001 RMK AO2

3 Jun 2020 00:47

Frequency: 119.75

Phone: 575-393-8418

Other Area AWOS: KGNC - KE11 - KINK - KCNM

TAF KHOB 022321Z 0300/0324 15008KT P6SM FEW120